sensor_id;sensor_type;location;lat;lon;timestamp;P1;durP1;ratioP1;P2;durP2;ratioP2
14381;SDS011;7275;50.328;8.720;2023-04-06T00:01:38;1.83;;;1.60;;
14381;SDS011;7275;50.328;8.720;2023-04-06T00:04:06;2.13;;;1.80;;
14381;SDS011;7275;50.328;8.720;2023-04-06T00:06:34;2.47;;;1.80;;
14381;SDS011;7275;50.328;8.720;2023-04-06T00:09:02;2.23;;;1.70;;
14381;SDS011;7275;50.328;8.720;2023-04-06T00:11:31;2.73;;;1.90;;
14381;SDS011;7275;50.328;8.720;2023-04-06T00:13:58;3.00;;;1.80;;
14381;SDS011;7275;50.328;8.720;2023-04-06T00:16:26;3.23;;;1.67;;
14381;SDS011;7275;50.328;8.720;2023-04-06T00:18:55;2.83;;;1.87;;
14381;SDS011;7275;50.328;8.720;2023-04-06T00:21:23;2.40;;;1.87;;
14381;SDS011;7275;50.328;8.720;2023-04-06T00:23:51;2.67;;;1.90;;
14381;SDS011;7275;50.328;8.720;2023-04-06T00:26:19;2.50;;;2.10;;
14381;SDS011;7275;50.328;8.720;2023-04-06T00:28:51;3.60;;;2.10;;
14381;SDS011;7275;50.328;8.720;2023-04-06T00:31:19;2.30;;;2.10;;
14381;SDS011;7275;50.328;8.720;2023-04-06T00:33:47;3.33;;;2.13;;
14381;SDS011;7275;50.328;8.720;2023-04-06T00:36:15;2.70;;;2.20;;
14381;SDS011;7275;50.328;8.720;2023-04-06T00:38:43;2.40;;;2.17;;
14381;SDS011;7275;50.328;8.720;2023-04-06T00:41:10;2.93;;;1.87;;
14381;SDS011;7275;50.328;8.720;2023-04-06T00:43:38;3.33;;;1.90;;
14381;SDS011;7275;50.328;8.720;2023-04-06T00:46:07;2.37;;;2.10;;
14381;SDS011;7275;50.328;8.720;2023-04-06T00:48:35;2.57;;;1.80;;
14381;SDS011;7275;50.328;8.720;2023-04-06T00:51:03;2.33;;;2.00;;
14381;SDS011;7275;50.328;8.720;2023-04-06T00:53:31;2.50;;;2.17;;
14381;SDS011;7275;50.328;8.720;2023-04-06T00:55:58;2.60;;;2.10;;
14381;SDS011;7275;50.328;8.720;2023-04-06T00:58:26;3.53;;;2.20;;
14381;SDS011;7275;50.328;8.720;2023-04-06T01:00:54;2.23;;;2.03;;
14381;SDS011;7275;50.328;8.720;2023-04-06T01:03:23;2.60;;;2.17;;
14381;SDS011;7275;50.328;8.720;2023-04-06T01:05:51;3.03;;;2.50;;
14381;SDS011;7275;50.328;8.720;2023-04-06T01:08:24;2.63;;;2.20;;
14381;SDS011;7275;50.328;8.720;2023-04-06T01:10:51;2.30;;;2.00;;
14381;SDS011;7275;50.328;8.720;2023-04-06T01:13:19;2.13;;;1.93;;
14381;SDS011;7275;50.328;8.720;2023-04-06T01:15:47;3.13;;;2.37;;
14381;SDS011;7275;50.328;8.720;2023-04-06T01:18:14;2.83;;;2.20;;
14381;SDS011;7275;50.328;8.720;2023-04-06T01:20:43;2.70;;;2.23;;
14381;SDS011;7275;50.328;8.720;2023-04-06T01:23:12;2.83;;;2.40;;
14381;SDS011;7275;50.328;8.720;2023-04-06T01:25:40;3.00;;;2.20;;
14381;SDS011;7275;50.328;8.720;2023-04-06T01:28:08;2.80;;;2.23;;
14381;SDS011;7275;50.328;8.720;2023-04-06T01:30:36;2.93;;;2.50;;
14381;SDS011;7275;50.328;8.720;2023-04-06T01:33:03;3.37;;;2.73;;
14381;SDS011;7275;50.328;8.720;2023-04-06T01:35:31;3.77;;;2.80;;
14381;SDS011;7275;50.328;8.720;2023-04-06T01:37:59;2.63;;;2.13;;
14381;SDS011;7275;50.328;8.720;2023-04-06T01:40:28;3.20;;;2.50;;
14381;SDS011;7275;50.328;8.720;2023-04-06T01:42:56;3.50;;;2.30;;
14381;SDS011;7275;50.328;8.720;2023-04-06T01:45:23;2.87;;;2.50;;
14381;SDS011;7275;50.328;8.720;2023-04-06T01:47:51;5.37;;;2.50;;
14381;SDS011;7275;50.328;8.720;2023-04-06T01:50:19;2.97;;;2.67;;
14381;SDS011;7275;50.328;8.720;2023-04-06T01:52:46;4.43;;;2.60;;
14381;SDS011;7275;50.328;8.720;2023-04-06T01:55:14;3.70;;;2.87;;
14381;SDS011;7275;50.328;8.720;2023-04-06T01:57:43;3.00;;;2.40;;
14381;SDS011;7275;50.328;8.720;2023-04-06T02:00:11;3.60;;;2.67;;
14381;SDS011;7275;50.328;8.720;2023-04-06T02:02:40;3.50;;;2.57;;
14381;SDS011;7275;50.328;8.720;2023-04-06T02:05:08;3.43;;;2.73;;
14381;SDS011;7275;50.328;8.720;2023-04-06T02:07:36;3.20;;;2.20;;
14381;SDS011;7275;50.328;8.720;2023-04-06T02:10:04;3.53;;;2.50;;
14381;SDS011;7275;50.328;8.720;2023-04-06T02:12:37;3.67;;;2.83;;
14381;SDS011;7275;50.328;8.720;2023-04-06T02:15:07;3.77;;;2.50;;
14381;SDS011;7275;50.328;8.720;2023-04-06T02:17:35;5.13;;;3.07;;
14381;SDS011;7275;50.328;8.720;2023-04-06T02:20:03;3.60;;;2.83;;
14381;SDS011;7275;50.328;8.720;2023-04-06T02:22:31;3.43;;;2.93;;
14381;SDS011;7275;50.328;8.720;2023-04-06T02:24:59;3.33;;;2.57;;
14381;SDS011;7275;50.328;8.720;2023-04-06T02:27:27;4.30;;;2.93;;
14381;SDS011;7275;50.328;8.720;2023-04-06T02:29:54;3.60;;;2.80;;
14381;SDS011;7275;50.328;8.720;2023-04-06T02:32:23;3.83;;;3.10;;
14381;SDS011;7275;50.328;8.720;2023-04-06T02:34:51;2.97;;;2.63;;
14381;SDS011;7275;50.328;8.720;2023-04-06T02:37:19;5.77;;;3.17;;
14381;SDS011;7275;50.328;8.720;2023-04-06T02:39:47;3.30;;;3.00;;
14381;SDS011;7275;50.328;8.720;2023-04-06T02:42:14;3.30;;;2.67;;
14381;SDS011;7275;50.328;8.720;2023-04-06T02:44:42;4.47;;;3.20;;
14381;SDS011;7275;50.328;8.720;2023-04-06T02:47:10;3.90;;;3.17;;
14381;SDS011;7275;50.328;8.720;2023-04-06T02:49:39;3.20;;;2.73;;
14381;SDS011;7275;50.328;8.720;2023-04-06T02:52:06;3.90;;;3.07;;
14381;SDS011;7275;50.328;8.720;2023-04-06T02:54:34;4.30;;;3.00;;
14381;SDS011;7275;50.328;8.720;2023-04-06T02:57:02;3.20;;;2.70;;
14381;SDS011;7275;50.328;8.720;2023-04-06T02:59:29;3.17;;;2.83;;
14381;SDS011;7275;50.328;8.720;2023-04-06T03:01:57;5.83;;;2.97;;
14381;SDS011;7275;50.328;8.720;2023-04-06T03:04:25;3.93;;;2.87;;
14381;SDS011;7275;50.328;8.720;2023-04-06T03:06:54;3.60;;;2.80;;
14381;SDS011;7275;50.328;8.720;2023-04-06T03:09:24;3.93;;;2.90;;
14381;SDS011;7275;50.328;8.720;2023-04-06T03:11:52;4.60;;;2.77;;
14381;SDS011;7275;50.328;8.720;2023-04-06T03:14:19;3.77;;;3.10;;
14381;SDS011;7275;50.328;8.720;2023-04-06T03:16:48;3.93;;;3.00;;
14381;SDS011;7275;50.328;8.720;2023-04-06T03:19:16;4.00;;;3.13;;
14381;SDS011;7275;50.328;8.720;2023-04-06T03:21:43;4.77;;;3.40;;
14381;SDS011;7275;50.328;8.720;2023-04-06T03:24:13;3.60;;;2.90;;
14381;SDS011;7275;50.328;8.720;2023-04-06T03:26:40;4.17;;;3.30;;
14381;SDS011;7275;50.328;8.720;2023-04-06T03:29:08;4.77;;;2.90;;
14381;SDS011;7275;50.328;8.720;2023-04-06T03:31:36;3.40;;;2.97;;
14381;SDS011;7275;50.328;8.720;2023-04-06T03:34:04;3.30;;;2.90;;
14381;SDS011;7275;50.328;8.720;2023-04-06T03:36:31;3.83;;;3.20;;
14381;SDS011;7275;50.328;8.720;2023-04-06T03:38:59;5.10;;;3.17;;
14381;SDS011;7275;50.328;8.720;2023-04-06T03:41:28;3.50;;;2.80;;
14381;SDS011;7275;50.328;8.720;2023-04-06T03:43:56;4.80;;;3.13;;
14381;SDS011;7275;50.328;8.720;2023-04-06T03:46:23;4.37;;;3.47;;
14381;SDS011;7275;50.328;8.720;2023-04-06T03:48:51;3.40;;;3.10;;
14381;SDS011;7275;50.328;8.720;2023-04-06T03:51:19;4.60;;;3.30;;
14381;SDS011;7275;50.328;8.720;2023-04-06T03:53:46;3.63;;;3.07;;
14381;SDS011;7275;50.328;8.720;2023-04-06T03:56:14;3.73;;;2.90;;
14381;SDS011;7275;50.328;8.720;2023-04-06T03:58:43;4.03;;;3.20;;
14381;SDS011;7275;50.328;8.720;2023-04-06T04:01:11;5.77;;;3.23;;
14381;SDS011;7275;50.328;8.720;2023-04-06T04:03:39;5.63;;;3.23;;
14381;SDS011;7275;50.328;8.720;2023-04-06T04:06:07;3.77;;;3.03;;
14381;SDS011;7275;50.328;8.720;2023-04-06T04:08:34;3.93;;;3.40;;
14381;SDS011;7275;50.328;8.720;2023-04-06T04:11:02;3.60;;;2.97;;
14381;SDS011;7275;50.328;8.720;2023-04-06T04:13:30;5.30;;;3.63;;
14381;SDS011;7275;50.328;8.720;2023-04-06T04:15:59;4.13;;;3.30;;
14381;SDS011;7275;50.328;8.720;2023-04-06T04:18:27;4.77;;;3.67;;
14381;SDS011;7275;50.328;8.720;2023-04-06T04:20:54;4.53;;;3.47;;
14381;SDS011;7275;50.328;8.720;2023-04-06T04:23:22;3.77;;;3.20;;
14381;SDS011;7275;50.328;8.720;2023-04-06T04:25:49;4.80;;;3.50;;
14381;SDS011;7275;50.328;8.720;2023-04-06T04:28:17;3.57;;;2.97;;
14381;SDS011;7275;50.328;8.720;2023-04-06T04:30:45;4.97;;;3.10;;
14381;SDS011;7275;50.328;8.720;2023-04-06T04:33:15;5.27;;;3.37;;
14381;SDS011;7275;50.328;8.720;2023-04-06T04:35:42;4.00;;;3.23;;
14381;SDS011;7275;50.328;8.720;2023-04-06T04:38:10;4.53;;;3.20;;
14381;SDS011;7275;50.328;8.720;2023-04-06T04:40:38;5.10;;;3.53;;
14381;SDS011;7275;50.328;8.720;2023-04-06T04:43:05;4.90;;;3.40;;
14381;SDS011;7275;50.328;8.720;2023-04-06T04:45:33;4.97;;;3.47;;
14381;SDS011;7275;50.328;8.720;2023-04-06T04:48:01;4.60;;;3.47;;
14381;SDS011;7275;50.328;8.720;2023-04-06T04:50:32;4.63;;;3.93;;
14381;SDS011;7275;50.328;8.720;2023-04-06T04:53:00;3.90;;;3.17;;
14381;SDS011;7275;50.328;8.720;2023-04-06T04:55:27;6.10;;;3.60;;
14381;SDS011;7275;50.328;8.720;2023-04-06T04:57:55;4.67;;;3.37;;
14381;SDS011;7275;50.328;8.720;2023-04-06T05:00:23;4.97;;;3.70;;
14381;SDS011;7275;50.328;8.720;2023-04-06T05:02:51;5.87;;;3.60;;
14381;SDS011;7275;50.328;8.720;2023-04-06T05:05:18;5.27;;;3.60;;
14381;SDS011;7275;50.328;8.720;2023-04-06T05:07:47;5.37;;;3.80;;
14381;SDS011;7275;50.328;8.720;2023-04-06T05:10:15;4.90;;;3.60;;
14381;SDS011;7275;50.328;8.720;2023-04-06T05:12:43;4.53;;;3.63;;
14381;SDS011;7275;50.328;8.720;2023-04-06T05:15:10;3.80;;;3.30;;
14381;SDS011;7275;50.328;8.720;2023-04-06T05:17:38;4.43;;;3.60;;
14381;SDS011;7275;50.328;8.720;2023-04-06T05:20:06;3.90;;;3.23;;
14381;SDS011;7275;50.328;8.720;2023-04-06T05:22:34;5.73;;;3.43;;
14381;SDS011;7275;50.328;8.720;2023-04-06T05:25:04;8.30;;;4.27;;
14381;SDS011;7275;50.328;8.720;2023-04-06T05:27:32;6.67;;;4.57;;
14381;SDS011;7275;50.328;8.720;2023-04-06T05:29:59;5.30;;;3.87;;
14381;SDS011;7275;50.328;8.720;2023-04-06T05:32:27;7.23;;;4.03;;
14381;SDS011;7275;50.328;8.720;2023-04-06T05:34:55;5.50;;;3.90;;
14381;SDS011;7275;50.328;8.720;2023-04-06T05:37:23;4.57;;;3.70;;
14381;SDS011;7275;50.328;8.720;2023-04-06T05:39:51;3.93;;;3.37;;
14381;SDS011;7275;50.328;8.720;2023-04-06T05:42:20;4.67;;;3.57;;
14381;SDS011;7275;50.328;8.720;2023-04-06T05:44:48;5.83;;;4.20;;
14381;SDS011;7275;50.328;8.720;2023-04-06T05:47:15;6.03;;;4.27;;
14381;SDS011;7275;50.328;8.720;2023-04-06T05:49:43;6.17;;;4.40;;
14381;SDS011;7275;50.328;8.720;2023-04-06T05:52:11;8.97;;;4.80;;
14381;SDS011;7275;50.328;8.720;2023-04-06T05:54:38;6.67;;;4.53;;
14381;SDS011;7275;50.328;8.720;2023-04-06T05:57:06;6.83;;;4.40;;
14381;SDS011;7275;50.328;8.720;2023-04-06T05:59:35;5.60;;;3.97;;
14381;SDS011;7275;50.328;8.720;2023-04-06T06:02:03;5.80;;;3.93;;
14381;SDS011;7275;50.328;8.720;2023-04-06T06:04:31;4.67;;;3.97;;
14381;SDS011;7275;50.328;8.720;2023-04-06T06:06:58;5.37;;;3.93;;
14381;SDS011;7275;50.328;8.720;2023-04-06T06:09:26;5.40;;;4.10;;
14381;SDS011;7275;50.328;8.720;2023-04-06T06:11:54;4.90;;;4.10;;
14381;SDS011;7275;50.328;8.720;2023-04-06T06:14:21;5.13;;;4.00;;
14381;SDS011;7275;50.328;8.720;2023-04-06T06:16:50;5.10;;;4.27;;
14381;SDS011;7275;50.328;8.720;2023-04-06T06:19:18;6.00;;;4.50;;
14381;SDS011;7275;50.328;8.720;2023-04-06T06:21:45;7.07;;;5.00;;
14381;SDS011;7275;50.328;8.720;2023-04-06T06:24:13;5.43;;;4.57;;
14381;SDS011;7275;50.328;8.720;2023-04-06T06:26:41;6.60;;;4.67;;
14381;SDS011;7275;50.328;8.720;2023-04-06T06:29:09;7.03;;;4.63;;
14381;SDS011;7275;50.328;8.720;2023-04-06T06:31:37;5.70;;;4.70;;
14381;SDS011;7275;50.328;8.720;2023-04-06T06:34:06;6.20;;;4.60;;
14381;SDS011;7275;50.328;8.720;2023-04-06T06:36:34;6.07;;;4.50;;
14381;SDS011;7275;50.328;8.720;2023-04-06T06:39:02;6.77;;;4.97;;
14381;SDS011;7275;50.328;8.720;2023-04-06T06:41:30;6.23;;;5.13;;
14381;SDS011;7275;50.328;8.720;2023-04-06T06:43:57;7.67;;;5.03;;
14381;SDS011;7275;50.328;8.720;2023-04-06T06:46:26;6.33;;;4.50;;
14381;SDS011;7275;50.328;8.720;2023-04-06T06:48:54;6.97;;;5.00;;
14381;SDS011;7275;50.328;8.720;2023-04-06T06:51:23;9.43;;;5.00;;
14381;SDS011;7275;50.328;8.720;2023-04-06T06:53:50;5.37;;;4.70;;
14381;SDS011;7275;50.328;8.720;2023-04-06T06:56:18;6.10;;;4.93;;
14381;SDS011;7275;50.328;8.720;2023-04-06T06:58:46;5.90;;;5.10;;
14381;SDS011;7275;50.328;8.720;2023-04-06T07:01:13;6.20;;;5.40;;
14381;SDS011;7275;50.328;8.720;2023-04-06T07:03:41;8.00;;;5.60;;
14381;SDS011;7275;50.328;8.720;2023-04-06T07:06:09;7.40;;;5.33;;
14381;SDS011;7275;50.328;8.720;2023-04-06T07:08:38;5.73;;;4.97;;
14381;SDS011;7275;50.328;8.720;2023-04-06T07:11:05;7.17;;;5.47;;
14381;SDS011;7275;50.328;8.720;2023-04-06T07:13:33;5.20;;;4.70;;
14381;SDS011;7275;50.328;8.720;2023-04-06T07:16:01;5.87;;;5.27;;
14381;SDS011;7275;50.328;8.720;2023-04-06T07:18:29;6.47;;;5.43;;
14381;SDS011;7275;50.328;8.720;2023-04-06T07:20:58;7.50;;;5.10;;
14381;SDS011;7275;50.328;8.720;2023-04-06T07:23:26;6.17;;;5.40;;
14381;SDS011;7275;50.328;8.720;2023-04-06T07:25:55;6.83;;;5.27;;
14381;SDS011;7275;50.328;8.720;2023-04-06T07:28:23;6.20;;;5.40;;
14381;SDS011;7275;50.328;8.720;2023-04-06T07:30:50;6.60;;;5.47;;
14381;SDS011;7275;50.328;8.720;2023-04-06T07:33:18;6.13;;;5.00;;
14381;SDS011;7275;50.328;8.720;2023-04-06T07:35:46;6.27;;;5.60;;
14381;SDS011;7275;50.328;8.720;2023-04-06T07:38:14;7.63;;;5.60;;
14381;SDS011;7275;50.328;8.720;2023-04-06T07:40:41;7.90;;;5.77;;
14381;SDS011;7275;50.328;8.720;2023-04-06T07:43:10;6.53;;;5.67;;
14381;SDS011;7275;50.328;8.720;2023-04-06T07:45:38;8.67;;;6.20;;
14381;SDS011;7275;50.328;8.720;2023-04-06T07:48:05;7.50;;;6.23;;
14381;SDS011;7275;50.328;8.720;2023-04-06T07:50:33;6.53;;;5.80;;
14381;SDS011;7275;50.328;8.720;2023-04-06T07:53:01;7.20;;;6.10;;
14381;SDS011;7275;50.328;8.720;2023-04-06T07:55:29;8.83;;;6.80;;
14381;SDS011;7275;50.328;8.720;2023-04-06T07:57:57;7.20;;;6.00;;
14381;SDS011;7275;50.328;8.720;2023-04-06T08:00:26;6.63;;;5.77;;
14381;SDS011;7275;50.328;8.720;2023-04-06T08:02:53;6.70;;;5.83;;
14381;SDS011;7275;50.328;8.720;2023-04-06T08:05:21;6.97;;;6.00;;
14381;SDS011;7275;50.328;8.720;2023-04-06T08:07:49;7.27;;;6.10;;
14381;SDS011;7275;50.328;8.720;2023-04-06T08:10:16;7.03;;;6.20;;
14381;SDS011;7275;50.328;8.720;2023-04-06T08:12:44;7.07;;;6.27;;
14381;SDS011;7275;50.328;8.720;2023-04-06T08:15:12;8.23;;;7.20;;
14381;SDS011;7275;50.328;8.720;2023-04-06T08:17:41;9.37;;;7.03;;
14381;SDS011;7275;50.328;8.720;2023-04-06T08:20:09;9.47;;;7.00;;
14381;SDS011;7275;50.328;8.720;2023-04-06T08:22:37;9.10;;;7.00;;
14381;SDS011;7275;50.328;8.720;2023-04-06T08:25:05;9.43;;;7.77;;
14381;SDS011;7275;50.328;8.720;2023-04-06T08:27:33;8.37;;;7.33;;
14381;SDS011;7275;50.328;8.720;2023-04-06T08:30:00;9.63;;;8.07;;
14381;SDS011;7275;50.328;8.720;2023-04-06T08:32:28;9.73;;;7.77;;
14381;SDS011;7275;50.328;8.720;2023-04-06T08:34:57;9.17;;;7.77;;
14381;SDS011;7275;50.328;8.720;2023-04-06T08:37:25;8.73;;;7.73;;
14381;SDS011;7275;50.328;8.720;2023-04-06T08:39:53;9.13;;;7.97;;
14381;SDS011;7275;50.328;8.720;2023-04-06T08:42:21;8.23;;;7.40;;
14381;SDS011;7275;50.328;8.720;2023-04-06T08:44:52;9.43;;;7.87;;
14381;SDS011;7275;50.328;8.720;2023-04-06T08:47:21;9.00;;;7.67;;
14381;SDS011;7275;50.328;8.720;2023-04-06T08:49:50;9.03;;;7.90;;
14381;SDS011;7275;50.328;8.720;2023-04-06T08:52:20;11.10;;;7.53;;
14381;SDS011;7275;50.328;8.720;2023-04-06T08:54:48;8.63;;;7.33;;
14381;SDS011;7275;50.328;8.720;2023-04-06T08:57:15;8.93;;;7.63;;
14381;SDS011;7275;50.328;8.720;2023-04-06T08:59:45;8.87;;;7.90;;
14381;SDS011;7275;50.328;8.720;2023-04-06T09:02:14;8.03;;;7.23;;
14381;SDS011;7275;50.328;8.720;2023-04-06T09:04:44;8.53;;;7.63;;
14381;SDS011;7275;50.328;8.720;2023-04-06T09:07:15;7.47;;;6.77;;
14381;SDS011;7275;50.328;8.720;2023-04-06T09:09:44;7.53;;;6.83;;
14381;SDS011;7275;50.328;8.720;2023-04-06T09:12:24;8.47;;;7.47;;
14381;SDS011;7275;50.328;8.720;2023-04-06T09:14:53;8.10;;;7.30;;
14381;SDS011;7275;50.328;8.720;2023-04-06T09:17:22;10.70;;;6.90;;
14381;SDS011;7275;50.328;8.720;2023-04-06T09:19:50;7.80;;;6.87;;
14381;SDS011;7275;50.328;8.720;2023-04-06T09:22:18;8.57;;;7.77;;
14381;SDS011;7275;50.328;8.720;2023-04-06T09:24:48;8.40;;;7.33;;
14381;SDS011;7275;50.328;8.720;2023-04-06T09:27:17;9.23;;;7.13;;
14381;SDS011;7275;50.328;8.720;2023-04-06T09:29:45;7.93;;;7.13;;
14381;SDS011;7275;50.328;8.720;2023-04-06T09:32:13;7.30;;;6.60;;
14381;SDS011;7275;50.328;8.720;2023-04-06T09:34:43;7.80;;;7.03;;
14381;SDS011;7275;50.328;8.720;2023-04-06T09:37:16;7.80;;;7.00;;
14381;SDS011;7275;50.328;8.720;2023-04-06T09:39:45;9.83;;;8.50;;
14381;SDS011;7275;50.328;8.720;2023-04-06T09:42:24;8.00;;;7.20;;
14381;SDS011;7275;50.328;8.720;2023-04-06T09:44:52;7.67;;;6.87;;
14381;SDS011;7275;50.328;8.720;2023-04-06T09:47:20;8.00;;;7.17;;
14381;SDS011;7275;50.328;8.720;2023-04-06T09:49:54;7.90;;;7.10;;
14381;SDS011;7275;50.328;8.720;2023-04-06T09:52:24;8.57;;;6.83;;
14381;SDS011;7275;50.328;8.720;2023-04-06T09:54:59;8.90;;;7.13;;
14381;SDS011;7275;50.328;8.720;2023-04-06T09:57:32;8.40;;;7.53;;
14381;SDS011;7275;50.328;8.720;2023-04-06T10:00:05;10.00;;;7.80;;
14381;SDS011;7275;50.328;8.720;2023-04-06T10:02:39;8.00;;;7.20;;
14381;SDS011;7275;50.328;8.720;2023-04-06T10:05:27;8.63;;;7.47;;
14381;SDS011;7275;50.328;8.720;2023-04-06T10:08:02;9.20;;;8.10;;
14381;SDS011;7275;50.328;8.720;2023-04-06T10:10:35;9.77;;;7.63;;
14381;SDS011;7275;50.328;8.720;2023-04-06T10:13:04;7.87;;;7.07;;
14381;SDS011;7275;50.328;8.720;2023-04-06T10:15:33;8.87;;;7.57;;
14381;SDS011;7275;50.328;8.720;2023-04-06T10:18:01;7.97;;;7.07;;
14381;SDS011;7275;50.328;8.720;2023-04-06T10:20:31;8.60;;;7.70;;
14381;SDS011;7275;50.328;8.720;2023-04-06T10:23:06;7.57;;;6.83;;
14381;SDS011;7275;50.328;8.720;2023-04-06T10:25:40;7.78;;;6.97;;
14381;SDS011;7275;50.328;8.720;2023-04-06T10:28:20;8.43;;;7.30;;
14381;SDS011;7275;50.328;8.720;2023-04-06T10:30:48;8.48;;;7.65;;
14381;SDS011;7275;50.328;8.720;2023-04-06T10:33:16;7.95;;;6.88;;
14381;SDS011;7275;50.328;8.720;2023-04-06T10:35:45;8.07;;;6.32;;
14381;SDS011;7275;50.328;8.720;2023-04-06T10:38:14;8.30;;;7.38;;
14381;SDS011;7275;50.328;8.720;2023-04-06T10:40:47;8.25;;;6.75;;
14381;SDS011;7275;50.328;8.720;2023-04-06T10:43:18;8.43;;;7.53;;
14381;SDS011;7275;50.328;8.720;2023-04-06T10:45:54;8.77;;;7.20;;
14381;SDS011;7275;50.328;8.720;2023-04-06T10:48:23;8.02;;;6.93;;
14381;SDS011;7275;50.328;8.720;2023-04-06T10:50:52;7.97;;;7.18;;
14381;SDS011;7275;50.328;8.720;2023-04-06T10:53:20;7.88;;;7.03;;
14381;SDS011;7275;50.328;8.720;2023-04-06T10:55:49;8.75;;;7.63;;
14381;SDS011;7275;50.328;8.720;2023-04-06T10:58:18;7.80;;;7.10;;
14381;SDS011;7275;50.328;8.720;2023-04-06T11:00:46;8.52;;;7.65;;
14381;SDS011;7275;50.328;8.720;2023-04-06T11:03:18;8.88;;;7.50;;
14381;SDS011;7275;50.328;8.720;2023-04-06T11:05:46;9.23;;;7.50;;
14381;SDS011;7275;50.328;8.720;2023-04-06T11:08:24;7.90;;;7.10;;
14381;SDS011;7275;50.328;8.720;2023-04-06T11:11:03;7.72;;;6.93;;
14381;SDS011;7275;50.328;8.720;2023-04-06T11:13:37;7.40;;;6.70;;
14381;SDS011;7275;50.328;8.720;2023-04-06T11:16:06;8.00;;;7.15;;
14381;SDS011;7275;50.328;8.720;2023-04-06T11:18:47;7.57;;;6.78;;
14381;SDS011;7275;50.328;8.720;2023-04-06T11:21:16;8.38;;;6.38;;
14381;SDS011;7275;50.328;8.720;2023-04-06T11:23:43;7.85;;;6.68;;
14381;SDS011;7275;50.328;8.720;2023-04-06T11:26:11;7.10;;;6.38;;
14381;SDS011;7275;50.328;8.720;2023-04-06T11:28:40;7.38;;;6.45;;
14381;SDS011;7275;50.328;8.720;2023-04-06T11:31:09;7.47;;;6.28;;
14381;SDS011;7275;50.328;8.720;2023-04-06T11:33:37;7.30;;;6.55;;
14381;SDS011;7275;50.328;8.720;2023-04-06T11:36:07;7.57;;;6.88;;
14381;SDS011;7275;50.328;8.720;2023-04-06T11:38:38;7.75;;;7.05;;
14381;SDS011;7275;50.328;8.720;2023-04-06T11:41:06;7.72;;;6.72;;
14381;SDS011;7275;50.328;8.720;2023-04-06T11:43:34;8.30;;;6.70;;
14381;SDS011;7275;50.328;8.720;2023-04-06T11:46:02;8.88;;;6.75;;
14381;SDS011;7275;50.328;8.720;2023-04-06T11:48:30;8.32;;;7.53;;
14381;SDS011;7275;50.328;8.720;2023-04-06T11:50:58;7.55;;;6.80;;
14381;SDS011;7275;50.328;8.720;2023-04-06T11:53:29;7.53;;;6.68;;
14381;SDS011;7275;50.328;8.720;2023-04-06T11:55:56;7.78;;;6.93;;
14381;SDS011;7275;50.328;8.720;2023-04-06T11:58:25;7.60;;;6.30;;
14381;SDS011;7275;50.328;8.720;2023-04-06T12:00:53;7.70;;;6.57;;
14381;SDS011;7275;50.328;8.720;2023-04-06T12:03:29;8.13;;;7.20;;
14381;SDS011;7275;50.328;8.720;2023-04-06T12:05:57;8.77;;;7.53;;
14381;SDS011;7275;50.328;8.720;2023-04-06T12:08:26;8.50;;;7.60;;
14381;SDS011;7275;50.328;8.720;2023-04-06T12:10:54;7.95;;;6.63;;
14381;SDS011;7275;50.328;8.720;2023-04-06T12:13:22;8.37;;;6.80;;
14381;SDS011;7275;50.328;8.720;2023-04-06T12:15:51;8.13;;;7.33;;
14381;SDS011;7275;50.328;8.720;2023-04-06T12:18:18;9.80;;;7.97;;
14381;SDS011;7275;50.328;8.720;2023-04-06T12:20:46;9.27;;;7.83;;
14381;SDS011;7275;50.328;8.720;2023-04-06T12:23:14;9.63;;;8.00;;
14381;SDS011;7275;50.328;8.720;2023-04-06T12:25:41;9.00;;;7.57;;
14381;SDS011;7275;50.328;8.720;2023-04-06T12:28:11;8.17;;;7.23;;
14381;SDS011;7275;50.328;8.720;2023-04-06T12:30:39;9.03;;;7.20;;
14381;SDS011;7275;50.328;8.720;2023-04-06T12:33:07;7.87;;;6.93;;
14381;SDS011;7275;50.328;8.720;2023-04-06T12:35:34;7.70;;;6.90;;
14381;SDS011;7275;50.328;8.720;2023-04-06T12:38:03;9.37;;;7.03;;
14381;SDS011;7275;50.328;8.720;2023-04-06T12:40:31;7.60;;;6.70;;
14381;SDS011;7275;50.328;8.720;2023-04-06T12:43:04;8.50;;;6.80;;
14381;SDS011;7275;50.328;8.720;2023-04-06T12:45:33;7.77;;;6.80;;
14381;SDS011;7275;50.328;8.720;2023-04-06T12:48:00;8.20;;;6.90;;
14381;SDS011;7275;50.328;8.720;2023-04-06T12:50:28;7.70;;;6.37;;
14381;SDS011;7275;50.328;8.720;2023-04-06T12:52:56;7.10;;;6.37;;
14381;SDS011;7275;50.328;8.720;2023-04-06T12:55:23;7.67;;;6.53;;
14381;SDS011;7275;50.328;8.720;2023-04-06T12:57:52;9.33;;;7.07;;
14381;SDS011;7275;50.328;8.720;2023-04-06T13:00:21;9.10;;;6.93;;
14381;SDS011;7275;50.328;8.720;2023-04-06T13:02:50;7.60;;;6.70;;
14381;SDS011;7275;50.328;8.720;2023-04-06T13:05:18;8.13;;;6.80;;
14381;SDS011;7275;50.328;8.720;2023-04-06T13:07:46;8.27;;;7.10;;
14381;SDS011;7275;50.328;8.720;2023-04-06T13:10:13;7.87;;;6.87;;
14381;SDS011;7275;50.328;8.720;2023-04-06T13:12:41;8.63;;;6.63;;
14381;SDS011;7275;50.328;8.720;2023-04-06T13:15:09;7.50;;;6.30;;
14381;SDS011;7275;50.328;8.720;2023-04-06T13:17:37;7.90;;;6.60;;
14381;SDS011;7275;50.328;8.720;2023-04-06T13:20:07;7.80;;;6.67;;
14381;SDS011;7275;50.328;8.720;2023-04-06T13:22:37;8.23;;;7.13;;
14381;SDS011;7275;50.328;8.720;2023-04-06T13:25:04;7.47;;;6.47;;
14381;SDS011;7275;50.328;8.720;2023-04-06T13:27:32;7.53;;;6.60;;
14381;SDS011;7275;50.328;8.720;2023-04-06T13:30:02;8.33;;;6.77;;
14381;SDS011;7275;50.328;8.720;2023-04-06T13:32:32;8.00;;;6.47;;
14381;SDS011;7275;50.328;8.720;2023-04-06T13:35:00;7.37;;;6.53;;
14381;SDS011;7275;50.328;8.720;2023-04-06T13:37:31;8.90;;;6.60;;
14381;SDS011;7275;50.328;8.720;2023-04-06T13:39:59;7.80;;;6.03;;
14381;SDS011;7275;50.328;8.720;2023-04-06T13:42:28;7.33;;;6.33;;
14381;SDS011;7275;50.328;8.720;2023-04-06T13:44:55;7.17;;;6.07;;
14381;SDS011;7275;50.328;8.720;2023-04-06T13:47:23;7.27;;;6.57;;
14381;SDS011;7275;50.328;8.720;2023-04-06T13:49:51;7.13;;;6.40;;
14381;SDS011;7275;50.328;8.720;2023-04-06T13:52:19;7.40;;;6.60;;
14381;SDS011;7275;50.328;8.720;2023-04-06T13:54:48;7.93;;;5.90;;
14381;SDS011;7275;50.328;8.720;2023-04-06T13:57:16;7.27;;;5.90;;
14381;SDS011;7275;50.328;8.720;2023-04-06T13:59:43;7.17;;;5.67;;
14381;SDS011;7275;50.328;8.720;2023-04-06T14:02:11;5.70;;;5.03;;
14381;SDS011;7275;50.328;8.720;2023-04-06T14:04:39;7.17;;;6.00;;
14381;SDS011;7275;50.328;8.720;2023-04-06T14:07:06;6.53;;;5.80;;
14381;SDS011;7275;50.328;8.720;2023-04-06T14:09:34;6.70;;;5.63;;
14381;SDS011;7275;50.328;8.720;2023-04-06T14:12:03;6.63;;;5.93;;
14381;SDS011;7275;50.328;8.720;2023-04-06T14:14:31;6.97;;;6.27;;
14381;SDS011;7275;50.328;8.720;2023-04-06T14:16:58;6.50;;;5.77;;
14381;SDS011;7275;50.328;8.720;2023-04-06T14:19:26;7.03;;;5.47;;
14381;SDS011;7275;50.328;8.720;2023-04-06T14:21:54;6.00;;;5.40;;
14381;SDS011;7275;50.328;8.720;2023-04-06T14:24:22;6.13;;;5.50;;
14381;SDS011;7275;50.328;8.720;2023-04-06T14:26:49;6.30;;;5.70;;
14381;SDS011;7275;50.328;8.720;2023-04-06T14:29:18;6.93;;;5.47;;
14381;SDS011;7275;50.328;8.720;2023-04-06T14:31:46;7.40;;;5.50;;
14381;SDS011;7275;50.328;8.720;2023-04-06T14:34:14;5.93;;;5.20;;
14381;SDS011;7275;50.328;8.720;2023-04-06T14:36:42;6.13;;;5.53;;
14381;SDS011;7275;50.328;8.720;2023-04-06T14:39:10;7.40;;;6.63;;
14381;SDS011;7275;50.328;8.720;2023-04-06T14:41:38;6.50;;;5.90;;
14381;SDS011;7275;50.328;8.720;2023-04-06T14:44:05;6.13;;;5.53;;
14381;SDS011;7275;50.328;8.720;2023-04-06T14:46:34;5.77;;;5.17;;
14381;SDS011;7275;50.328;8.720;2023-04-06T14:49:03;6.73;;;5.47;;
14381;SDS011;7275;50.328;8.720;2023-04-06T14:51:31;5.77;;;5.17;;
14381;SDS011;7275;50.328;8.720;2023-04-06T14:54:01;6.40;;;5.33;;
14381;SDS011;7275;50.328;8.720;2023-04-06T14:56:29;6.67;;;5.53;;
14381;SDS011;7275;50.328;8.720;2023-04-06T14:58:57;6.30;;;5.70;;
14381;SDS011;7275;50.328;8.720;2023-04-06T15:01:25;6.13;;;5.47;;
14381;SDS011;7275;50.328;8.720;2023-04-06T15:03:54;7.30;;;5.77;;
14381;SDS011;7275;50.328;8.720;2023-04-06T15:06:22;6.87;;;5.70;;
14381;SDS011;7275;50.328;8.720;2023-04-06T15:08:49;6.47;;;5.53;;